sensor_id;sensor_type;location;lat;lon;timestamp;P1;durP1;ratioP1;P2;durP2;ratioP2
54458;SDS011;40368;49.350;8.152;2022-10-18T00:00:00;33;;;156;;
54458;SDS011;40368;49.350;8.152;2022-10-18T00:01:00;33;;;106;;
54458;SDS011;40368;49.350;8.152;2022-10-18T00:02:00;30;;;78;;
54458;SDS011;40368;49.350;8.152;2022-10-18T00:03:00;31;;;106;;
54458;SDS011;40368;49.350;8.152;2022-10-18T00:04:00;32;;;188;;
54458;SDS011;40368;49.350;8.152;2022-10-18T00:05:00;31;;;116;;
54458;SDS011;40368;49.350;8.152;2022-10-18T00:06:00;31;;;106;;
54458;SDS011;40368;49.350;8.152;2022-10-18T00:07:00;31;;;127;;
54458;SDS011;40368;49.350;8.152;2022-10-18T00:08:00;34;;;106;;
54458;SDS011;40368;49.350;8.152;2022-10-18T00:09:00;36;;;84;;
54458;SDS011;40368;49.350;8.152;2022-10-18T00:10:00;36;;;65;;
54458;SDS011;40368;49.350;8.152;2022-10-18T00:11:00;40;;;92;;
54458;SDS011;40368;49.350;8.152;2022-10-18T00:12:00;35;;;106;;
54458;SDS011;40368;49.350;8.152;2022-10-18T00:13:00;30;;;55;;
54458;SDS011;40368;49.350;8.152;2022-10-18T00:14:00;44;;;92;;
54458;SDS011;40368;49.350;8.152;2022-10-18T00:15:00;30;;;64;;
54458;SDS011;40368;49.350;8.152;2022-10-18T00:16:01;32;;;52;;
54458;SDS011;40368;49.350;8.152;2022-10-18T00:17:01;31;;;104;;
54458;SDS011;40368;49.350;8.152;2022-10-18T00:18:00;28;;;108;;
54458;SDS011;40368;49.350;8.152;2022-10-18T00:19:00;36;;;118;;
54458;SDS011;40368;49.350;8.152;2022-10-18T00:20:00;32;;;103;;
54458;SDS011;40368;49.350;8.152;2022-10-18T00:21:01;28;;;78;;
54458;SDS011;40368;49.350;8.152;2022-10-18T00:22:00;31;;;118;;
54458;SDS011;40368;49.350;8.152;2022-10-18T00:23:00;26;;;54;;
54458;SDS011;40368;49.350;8.152;2022-10-18T00:24:00;28;;;55;;
54458;SDS011;40368;49.350;8.152;2022-10-18T00:25:00;32;;;120;;
54458;SDS011;40368;49.350;8.152;2022-10-18T00:26:01;30;;;86;;
54458;SDS011;40368;49.350;8.152;2022-10-18T00:27:00;26;;;120;;
54458;SDS011;40368;49.350;8.152;2022-10-18T00:28:00;27;;;78;;
54458;SDS011;40368;49.350;8.152;2022-10-18T00:29:01;31;;;77;;
54458;SDS011;40368;49.350;8.152;2022-10-18T00:30:00;32;;;115;;
54458;SDS011;40368;49.350;8.152;2022-10-18T00:31:08;32;;;64;;
54458;SDS011;40368;49.350;8.152;2022-10-18T00:32:00;30;;;109;;
54458;SDS011;40368;49.350;8.152;2022-10-18T00:33:00;29;;;71;;
54458;SDS011;40368;49.350;8.152;2022-10-18T00:34:01;29;;;86;;
54458;SDS011;40368;49.350;8.152;2022-10-18T00:35:00;28;;;95;;
54458;SDS011;40368;49.350;8.152;2022-10-18T00:36:00;30;;;116;;
54458;SDS011;40368;49.350;8.152;2022-10-18T00:37:00;33;;;86;;
54458;SDS011;40368;49.350;8.152;2022-10-18T00:38:00;28;;;68;;
54458;SDS011;40368;49.350;8.152;2022-10-18T00:39:00;30;;;121;;
54458;SDS011;40368;49.350;8.152;2022-10-18T00:40:00;27;;;59;;
54458;SDS011;40368;49.350;8.152;2022-10-18T00:41:00;33;;;75;;
54458;SDS011;40368;49.350;8.152;2022-10-18T00:42:00;28;;;80;;
54458;SDS011;40368;49.350;8.152;2022-10-18T00:43:00;29;;;65;;
54458;SDS011;40368;49.350;8.152;2022-10-18T00:44:01;27;;;52;;
54458;SDS011;40368;49.350;8.152;2022-10-18T00:45:02;26;;;40;;
54458;SDS011;40368;49.350;8.152;2022-10-18T00:46:00;26;;;85;;
54458;SDS011;40368;49.350;8.152;2022-10-18T00:47:01;29;;;106;;
54458;SDS011;40368;49.350;8.152;2022-10-18T00:48:01;27;;;90;;
54458;SDS011;40368;49.350;8.152;2022-10-18T00:49:00;27;;;119;;
54458;SDS011;40368;49.350;8.152;2022-10-18T00:50:01;31;;;91;;
54458;SDS011;40368;49.350;8.152;2022-10-18T00:51:00;27;;;83;;
54458;SDS011;40368;49.350;8.152;2022-10-18T00:52:02;27;;;82;;
54458;SDS011;40368;49.350;8.152;2022-10-18T00:53:01;31;;;117;;
54458;SDS011;40368;49.350;8.152;2022-10-18T00:54:00;31;;;80;;
54458;SDS011;40368;49.350;8.152;2022-10-18T00:55:00;27;;;86;;
54458;SDS011;40368;49.350;8.152;2022-10-18T00:56:00;32;;;100;;
54458;SDS011;40368;49.350;8.152;2022-10-18T00:57:01;30;;;103;;
54458;SDS011;40368;49.350;8.152;2022-10-18T00:58:00;29;;;107;;
54458;SDS011;40368;49.350;8.152;2022-10-18T00:59:00;33;;;105;;
54458;SDS011;40368;49.350;8.152;2022-10-18T01:00:00;30;;;87;;
54458;SDS011;40368;49.350;8.152;2022-10-18T01:01:00;29;;;110;;
54458;SDS011;40368;49.350;8.152;2022-10-18T01:02:00;30;;;146;;
54458;SDS011;40368;49.350;8.152;2022-10-18T01:03:00;35;;;93;;
54458;SDS011;40368;49.350;8.152;2022-10-18T01:04:00;35;;;84;;
54458;SDS011;40368;49.350;8.152;2022-10-18T01:05:00;35;;;123;;
54458;SDS011;40368;49.350;8.152;2022-10-18T01:07:14;40;;;144;;
54458;SDS011;40368;49.350;8.152;2022-10-18T01:09:12;34;;;130;;
54458;SDS011;40368;49.350;8.152;2022-10-18T01:11:15;30;;;69;;
54458;SDS011;40368;49.350;8.152;2022-10-18T01:12:13;32;;;118;;
54458;SDS011;40368;49.350;8.152;2022-10-18T01:13:17;31;;;101;;
54458;SDS011;40368;49.350;8.152;2022-10-18T01:14:05;29;;;75;;
54458;SDS011;40368;49.350;8.152;2022-10-18T01:15:05;29;;;84;;
54458;SDS011;40368;49.350;8.152;2022-10-18T01:16:02;30;;;60;;
54458;SDS011;40368;49.350;8.152;2022-10-18T01:17:01;31;;;108;;
54458;SDS011;40368;49.350;8.152;2022-10-18T01:18:03;31;;;76;;
54458;SDS011;40368;49.350;8.152;2022-10-18T01:19:02;27;;;106;;
54458;SDS011;40368;49.350;8.152;2022-10-18T01:20:02;31;;;84;;
54458;SDS011;40368;49.350;8.152;2022-10-18T01:21:05;33;;;84;;
54458;SDS011;40368;49.350;8.152;2022-10-18T01:22:01;28;;;82;;
54458;SDS011;40368;49.350;8.152;2022-10-18T01:23:02;30;;;79;;
54458;SDS011;40368;49.350;8.152;2022-10-18T01:24:09;27;;;91;;
54458;SDS011;40368;49.350;8.152;2022-10-18T01:25:02;29;;;61;;
54458;SDS011;40368;49.350;8.152;2022-10-18T01:26:02;28;;;52;;
54458;SDS011;40368;49.350;8.152;2022-10-18T01:27:04;28;;;85;;
54458;SDS011;40368;49.350;8.152;2022-10-18T01:28:03;30;;;151;;
54458;SDS011;40368;49.350;8.152;2022-10-18T01:29:01;26;;;59;;
54458;SDS011;40368;49.350;8.152;2022-10-18T01:30:06;28;;;83;;
54458;SDS011;40368;49.350;8.152;2022-10-18T01:31:00;31;;;81;;
54458;SDS011;40368;49.350;8.152;2022-10-18T01:32:01;33;;;118;;
54458;SDS011;40368;49.350;8.152;2022-10-18T01:33:02;27;;;91;;
54458;SDS011;40368;49.350;8.152;2022-10-18T01:34:00;34;;;109;;
54458;SDS011;40368;49.350;8.152;2022-10-18T01:35:01;33;;;100;;
54458;SDS011;40368;49.350;8.152;2022-10-18T01:36:01;27;;;115;;
54458;SDS011;40368;49.350;8.152;2022-10-18T01:37:00;36;;;92;;
54458;SDS011;40368;49.350;8.152;2022-10-18T01:38:01;33;;;95;;
54458;SDS011;40368;49.350;8.152;2022-10-18T01:39:01;33;;;112;;
54458;SDS011;40368;49.350;8.152;2022-10-18T01:40:01;28;;;82;;
54458;SDS011;40368;49.350;8.152;2022-10-18T01:41:00;31;;;90;;
54458;SDS011;40368;49.350;8.152;2022-10-18T01:42:00;30;;;76;;
54458;SDS011;40368;49.350;8.152;2022-10-18T01:43:00;35;;;105;;
54458;SDS011;40368;49.350;8.152;2022-10-18T01:44:00;25;;;106;;
54458;SDS011;40368;49.350;8.152;2022-10-18T01:45:00;31;;;141;;
54458;SDS011;40368;49.350;8.152;2022-10-18T01:46:00;28;;;116;;
54458;SDS011;40368;49.350;8.152;2022-10-18T01:47:00;32;;;61;;
54458;SDS011;40368;49.350;8.152;2022-10-18T01:48:00;29;;;124;;
54458;SDS011;40368;49.350;8.152;2022-10-18T01:49:00;38;;;76;;
54458;SDS011;40368;49.350;8.152;2022-10-18T01:50:02;33;;;70;;
54458;SDS011;40368;49.350;8.152;2022-10-18T01:51:00;32;;;114;;
54458;SDS011;40368;49.350;8.152;2022-10-18T01:52:00;29;;;99;;
54458;SDS011;40368;49.350;8.152;2022-10-18T01:53:00;34;;;178;;
54458;SDS011;40368;49.350;8.152;2022-10-18T01:54:00;31;;;56;;
54458;SDS011;40368;49.350;8.152;2022-10-18T01:55:00;31;;;128;;
54458;SDS011;40368;49.350;8.152;2022-10-18T01:56:04;29;;;83;;
54458;SDS011;40368;49.350;8.152;2022-10-18T01:57:00;27;;;69;;
54458;SDS011;40368;49.350;8.152;2022-10-18T01:58:02;28;;;137;;
54458;SDS011;40368;49.350;8.152;2022-10-18T01:59:04;31;;;101;;
54458;SDS011;40368;49.350;8.152;2022-10-18T02:00:00;29;;;87;;
54458;SDS011;40368;49.350;8.152;2022-10-18T02:01:02;29;;;71;;
54458;SDS011;40368;49.350;8.152;2022-10-18T02:02:01;33;;;83;;
54458;SDS011;40368;49.350;8.152;2022-10-18T02:03:01;29;;;81;;
54458;SDS011;40368;49.350;8.152;2022-10-18T02:04:03;31;;;65;;
54458;SDS011;40368;49.350;8.152;2022-10-18T02:05:01;31;;;121;;
54458;SDS011;40368;49.350;8.152;2022-10-18T02:06:02;31;;;80;;
54458;SDS011;40368;49.350;8.152;2022-10-18T02:07:02;29;;;141;;
54458;SDS011;40368;49.350;8.152;2022-10-18T02:08:02;29;;;68;;
54458;SDS011;40368;49.350;8.152;2022-10-18T02:09:02;31;;;70;;
54458;SDS011;40368;49.350;8.152;2022-10-18T02:10:03;28;;;70;;
54458;SDS011;40368;49.350;8.152;2022-10-18T02:11:01;31;;;63;;
54458;SDS011;40368;49.350;8.152;2022-10-18T02:12:00;33;;;93;;
54458;SDS011;40368;49.350;8.152;2022-10-18T02:13:00;29;;;92;;
54458;SDS011;40368;49.350;8.152;2022-10-18T02:14:02;28;;;64;;
54458;SDS011;40368;49.350;8.152;2022-10-18T02:15:00;31;;;74;;
54458;SDS011;40368;49.350;8.152;2022-10-18T02:16:02;27;;;51;;
54458;SDS011;40368;49.350;8.152;2022-10-18T02:17:00;28;;;57;;
54458;SDS011;40368;49.350;8.152;2022-10-18T02:18:00;36;;;92;;
54458;SDS011;40368;49.350;8.152;2022-10-18T02:19:00;32;;;99;;
54458;SDS011;40368;49.350;8.152;2022-10-18T02:20:00;28;;;58;;
54458;SDS011;40368;49.350;8.152;2022-10-18T02:21:00;29;;;48;;
54458;SDS011;40368;49.350;8.152;2022-10-18T02:22:00;30;;;108;;
54458;SDS011;40368;49.350;8.152;2022-10-18T02:23:00;26;;;109;;
54458;SDS011;40368;49.350;8.152;2022-10-18T02:24:00;31;;;99;;
54458;SDS011;40368;49.350;8.152;2022-10-18T02:25:01;29;;;97;;
54458;SDS011;40368;49.350;8.152;2022-10-18T02:26:00;32;;;122;;
54458;SDS011;40368;49.350;8.152;2022-10-18T02:27:00;29;;;180;;
54458;SDS011;40368;49.350;8.152;2022-10-18T02:28:00;28;;;94;;
54458;SDS011;40368;49.350;8.152;2022-10-18T02:29:00;30;;;97;;
54458;SDS011;40368;49.350;8.152;2022-10-18T02:30:00;30;;;109;;
54458;SDS011;40368;49.350;8.152;2022-10-18T02:31:02;30;;;68;;
54458;SDS011;40368;49.350;8.152;2022-10-18T02:32:02;30;;;85;;
54458;SDS011;40368;49.350;8.152;2022-10-18T02:33:01;29;;;81;;
54458;SDS011;40368;49.350;8.152;2022-10-18T02:34:01;29;;;51;;
54458;SDS011;40368;49.350;8.152;2022-10-18T02:35:01;31;;;145;;
54458;SDS011;40368;49.350;8.152;2022-10-18T02:36:02;30;;;59;;
54458;SDS011;40368;49.350;8.152;2022-10-18T02:37:00;30;;;82;;
54458;SDS011;40368;49.350;8.152;2022-10-18T02:38:00;30;;;76;;
54458;SDS011;40368;49.350;8.152;2022-10-18T02:39:01;31;;;142;;
54458;SDS011;40368;49.350;8.152;2022-10-18T02:40:01;32;;;126;;
54458;SDS011;40368;49.350;8.152;2022-10-18T02:41:00;29;;;63;;
54458;SDS011;40368;49.350;8.152;2022-10-18T02:42:01;28;;;86;;
54458;SDS011;40368;49.350;8.152;2022-10-18T02:43:00;30;;;101;;
54458;SDS011;40368;49.350;8.152;2022-10-18T02:44:00;26;;;127;;
54458;SDS011;40368;49.350;8.152;2022-10-18T02:45:00;31;;;82;;
54458;SDS011;40368;49.350;8.152;2022-10-18T02:46:00;32;;;110;;
54458;SDS011;40368;49.350;8.152;2022-10-18T02:47:00;27;;;78;;
54458;SDS011;40368;49.350;8.152;2022-10-18T02:48:00;27;;;52;;
54458;SDS011;40368;49.350;8.152;2022-10-18T02:49:00;28;;;110;;
54458;SDS011;40368;49.350;8.152;2022-10-18T02:50:00;28;;;148;;
54458;SDS011;40368;49.350;8.152;2022-10-18T02:51:00;24;;;75;;
54458;SDS011;40368;49.350;8.152;2022-10-18T02:52:00;27;;;64;;
54458;SDS011;40368;49.350;8.152;2022-10-18T02:53:00;39;;;100;;
54458;SDS011;40368;49.350;8.152;2022-10-18T02:54:00;33;;;91;;
54458;SDS011;40368;49.350;8.152;2022-10-18T02:55:00;30;;;86;;
54458;SDS011;40368;49.350;8.152;2022-10-18T02:56:00;25;;;71;;
54458;SDS011;40368;49.350;8.152;2022-10-18T02:57:00;31;;;85;;
54458;SDS011;40368;49.350;8.152;2022-10-18T02:58:00;30;;;75;;
54458;SDS011;40368;49.350;8.152;2022-10-18T02:59:00;27;;;77;;
54458;SDS011;40368;49.350;8.152;2022-10-18T03:00:00;28;;;77;;
54458;SDS011;40368;49.350;8.152;2022-10-18T03:01:00;30;;;118;;
54458;SDS011;40368;49.350;8.152;2022-10-18T03:02:00;31;;;86;;
54458;SDS011;40368;49.350;8.152;2022-10-18T03:03:00;28;;;65;;
54458;SDS011;40368;49.350;8.152;2022-10-18T03:04:00;30;;;64;;
54458;SDS011;40368;49.350;8.152;2022-10-18T03:05:00;27;;;100;;
54458;SDS011;40368;49.350;8.152;2022-10-18T03:06:00;31;;;84;;
54458;SDS011;40368;49.350;8.152;2022-10-18T03:07:00;34;;;67;;
54458;SDS011;40368;49.350;8.152;2022-10-18T03:08:00;29;;;96;;
54458;SDS011;40368;49.350;8.152;2022-10-18T03:09:00;29;;;105;;
54458;SDS011;40368;49.350;8.152;2022-10-18T03:10:00;34;;;84;;
54458;SDS011;40368;49.350;8.152;2022-10-18T03:11:00;26;;;93;;
54458;SDS011;40368;49.350;8.152;2022-10-18T03:12:00;30;;;79;;
54458;SDS011;40368;49.350;8.152;2022-10-18T03:13:00;29;;;77;;
54458;SDS011;40368;49.350;8.152;2022-10-18T03:14:22;32;;;76;;
54458;SDS011;40368;49.350;8.152;2022-10-18T03:15:00;32;;;53;;
54458;SDS011;40368;49.350;8.152;2022-10-18T03:16:00;29;;;69;;
54458;SDS011;40368;49.350;8.152;2022-10-18T03:17:00;30;;;48;;
54458;SDS011;40368;49.350;8.152;2022-10-18T03:18:00;30;;;99;;
54458;SDS011;40368;49.350;8.152;2022-10-18T03:19:00;28;;;94;;
54458;SDS011;40368;49.350;8.152;2022-10-18T03:20:00;29;;;88;;
54458;SDS011;40368;49.350;8.152;2022-10-18T03:21:02;35;;;122;;
54458;SDS011;40368;49.350;8.152;2022-10-18T03:22:00;30;;;65;;
54458;SDS011;40368;49.350;8.152;2022-10-18T03:23:01;32;;;70;;
54458;SDS011;40368;49.350;8.152;2022-10-18T03:24:00;30;;;67;;
54458;SDS011;40368;49.350;8.152;2022-10-18T03:25:00;31;;;89;;
54458;SDS011;40368;49.350;8.152;2022-10-18T03:26:00;34;;;111;;
54458;SDS011;40368;49.350;8.152;2022-10-18T03:27:00;30;;;56;;
54458;SDS011;40368;49.350;8.152;2022-10-18T03:28:00;34;;;136;;
54458;SDS011;40368;49.350;8.152;2022-10-18T03:29:01;30;;;70;;
54458;SDS011;40368;49.350;8.152;2022-10-18T03:30:00;28;;;81;;
54458;SDS011;40368;49.350;8.152;2022-10-18T03:31:00;30;;;57;;
54458;SDS011;40368;49.350;8.152;2022-10-18T03:32:01;34;;;98;;
54458;SDS011;40368;49.350;8.152;2022-10-18T03:33:00;37;;;139;;
54458;SDS011;40368;49.350;8.152;2022-10-18T03:34:00;38;;;99;;
54458;SDS011;40368;49.350;8.152;2022-10-18T03:35:00;35;;;62;;
54458;SDS011;40368;49.350;8.152;2022-10-18T03:36:00;29;;;61;;
54458;SDS011;40368;49.350;8.152;2022-10-18T03:37:00;30;;;83;;
54458;SDS011;40368;49.350;8.152;2022-10-18T03:38:00;33;;;92;;
54458;SDS011;40368;49.350;8.152;2022-10-18T03:39:00;31;;;70;;
54458;SDS011;40368;49.350;8.152;2022-10-18T03:40:00;34;;;102;;
54458;SDS011;40368;49.350;8.152;2022-10-18T03:41:00;28;;;80;;
54458;SDS011;40368;49.350;8.152;2022-10-18T03:42:00;34;;;113;;
54458;SDS011;40368;49.350;8.152;2022-10-18T03:43:00;33;;;47;;
54458;SDS011;40368;49.350;8.152;2022-10-18T03:44:00;36;;;83;;
54458;SDS011;40368;49.350;8.152;2022-10-18T03:45:00;31;;;52;;
54458;SDS011;40368;49.350;8.152;2022-10-18T03:46:01;33;;;74;;
54458;SDS011;40368;49.350;8.152;2022-10-18T03:47:00;34;;;102;;
54458;SDS011;40368;49.350;8.152;2022-10-18T03:48:00;35;;;127;;
54458;SDS011;40368;49.350;8.152;2022-10-18T03:49:00;34;;;102;;
54458;SDS011;40368;49.350;8.152;2022-10-18T03:50:00;30;;;96;;
54458;SDS011;40368;49.350;8.152;2022-10-18T03:51:00;34;;;73;;
54458;SDS011;40368;49.350;8.152;2022-10-18T03:52:00;31;;;94;;
54458;SDS011;40368;49.350;8.152;2022-10-18T03:53:00;36;;;88;;
54458;SDS011;40368;49.350;8.152;2022-10-18T03:54:00;32;;;107;;
54458;SDS011;40368;49.350;8.152;2022-10-18T03:55:00;29;;;52;;
54458;SDS011;40368;49.350;8.152;2022-10-18T03:56:00;32;;;94;;
54458;SDS011;40368;49.350;8.152;2022-10-18T03:57:00;35;;;86;;
54458;SDS011;40368;49.350;8.152;2022-10-18T03:58:00;38;;;130;;
54458;SDS011;40368;49.350;8.152;2022-10-18T03:59:00;35;;;70;;
54458;SDS011;40368;49.350;8.152;2022-10-18T04:00:00;34;;;102;;
54458;SDS011;40368;49.350;8.152;2022-10-18T04:02:00;34;;;90;;
54458;SDS011;40368;49.350;8.152;2022-10-18T04:03:00;34;;;81;;
54458;SDS011;40368;49.350;8.152;2022-10-18T04:04:00;38;;;84;;
54458;SDS011;40368;49.350;8.152;2022-10-18T04:05:00;35;;;81;;
54458;SDS011;40368;49.350;8.152;2022-10-18T04:06:00;39;;;144;;
54458;SDS011;40368;49.350;8.152;2022-10-18T04:07:00;34;;;87;;
54458;SDS011;40368;49.350;8.152;2022-10-18T04:08:00;42;;;92;;
54458;SDS011;40368;49.350;8.152;2022-10-18T04:09:00;38;;;59;;
54458;SDS011;40368;49.350;8.152;2022-10-18T04:10:00;31;;;75;;
54458;SDS011;40368;49.350;8.152;2022-10-18T04:11:03;37;;;86;;
54458;SDS011;40368;49.350;8.152;2022-10-18T04:12:00;35;;;107;;
54458;SDS011;40368;49.350;8.152;2022-10-18T04:13:01;42;;;129;;
54458;SDS011;40368;49.350;8.152;2022-10-18T04:14:00;35;;;88;;
54458;SDS011;40368;49.350;8.152;2022-10-18T04:15:00;37;;;96;;
54458;SDS011;40368;49.350;8.152;2022-10-18T04:16:00;33;;;90;;
54458;SDS011;40368;49.350;8.152;2022-10-18T04:17:00;36;;;118;;
54458;SDS011;40368;49.350;8.152;2022-10-18T04:18:01;33;;;77;;
54458;SDS011;40368;49.350;8.152;2022-10-18T04:19:00;33;;;84;;
54458;SDS011;40368;49.350;8.152;2022-10-18T04:20:00;36;;;102;;
54458;SDS011;40368;49.350;8.152;2022-10-18T04:21:00;32;;;65;;
54458;SDS011;40368;49.350;8.152;2022-10-18T04:22:00;36;;;82;;
54458;SDS011;40368;49.350;8.152;2022-10-18T04:23:00;32;;;86;;
54458;SDS011;40368;49.350;8.152;2022-10-18T04:24:00;33;;;81;;
54458;SDS011;40368;49.350;8.152;2022-10-18T04:25:00;36;;;118;;
54458;SDS011;40368;49.350;8.152;2022-10-18T04:26:00;36;;;117;;
54458;SDS011;40368;49.350;8.152;2022-10-18T04:27:00;35;;;127;;
54458;SDS011;40368;49.350;8.152;2022-10-18T04:28:00;30;;;73;;
54458;SDS011;40368;49.350;8.152;2022-10-18T04:29:00;33;;;116;;
54458;SDS011;40368;49.350;8.152;2022-10-18T04:30:00;35;;;90;;
54458;SDS011;40368;49.350;8.152;2022-10-18T04:31:00;34;;;91;;
54458;SDS011;40368;49.350;8.152;2022-10-18T04:32:00;32;;;75;;
54458;SDS011;40368;49.350;8.152;2022-10-18T04:33:00;32;;;76;;
54458;SDS011;40368;49.350;8.152;2022-10-18T04:34:00;38;;;120;;
54458;SDS011;40368;49.350;8.152;2022-10-18T04:35:00;35;;;125;;
54458;SDS011;40368;49.350;8.152;2022-10-18T04:36:00;43;;;163;;
54458;SDS011;40368;49.350;8.152;2022-10-18T04:37:00;40;;;132;;
54458;SDS011;40368;49.350;8.152;2022-10-18T04:38:00;43;;;135;;
54458;SDS011;40368;49.350;8.152;2022-10-18T04:39:00;39;;;76;;
54458;SDS011;40368;49.350;8.152;2022-10-18T04:40:00;38;;;103;;
54458;SDS011;40368;49.350;8.152;2022-10-18T04:41:00;40;;;118;;
54458;SDS011;40368;49.350;8.152;2022-10-18T04:42:00;40;;;126;;
54458;SDS011;40368;49.350;8.152;2022-10-18T04:43:00;43;;;156;;
54458;SDS011;40368;49.350;8.152;2022-10-18T04:44:00;34;;;88;;
54458;SDS011;40368;49.350;8.152;2022-10-18T04:45:00;41;;;125;;
54458;SDS011;40368;49.350;8.152;2022-10-18T04:46:00;39;;;84;;
54458;SDS011;40368;49.350;8.152;2022-10-18T04:47:00;40;;;79;;
54458;SDS011;40368;49.350;8.152;2022-10-18T04:48:00;37;;;117;;
54458;SDS011;40368;49.350;8.152;2022-10-18T04:49:01;40;;;84;;
54458;SDS011;40368;49.350;8.152;2022-10-18T04:50:00;40;;;112;;
54458;SDS011;40368;49.350;8.152;2022-10-18T04:51:00;41;;;91;;
54458;SDS011;40368;49.350;8.152;2022-10-18T04:52:00;39;;;116;;
54458;SDS011;40368;49.350;8.152;2022-10-18T04:53:00;49;;;82;;
54458;SDS011;40368;49.350;8.152;2022-10-18T04:54:00;44;;;88;;
54458;SDS011;40368;49.350;8.152;2022-10-18T04:55:00;43;;;86;;
54458;SDS011;40368;49.350;8.152;2022-10-18T04:56:00;40;;;92;;
54458;SDS011;40368;49.350;8.152;2022-10-18T04:57:00;38;;;100;;
54458;SDS011;40368;49.350;8.152;2022-10-18T04:58:00;36;;;78;;
54458;SDS011;40368;49.350;8.152;2022-10-18T04:59:00;35;;;101;;
54458;SDS011;40368;49.350;8.152;2022-10-18T05:00:00;38;;;70;;
54458;SDS011;40368;49.350;8.152;2022-10-18T05:01:03;40;;;81;;
54458;SDS011;40368;49.350;8.152;2022-10-18T05:02:00;36;;;123;;
54458;SDS011;40368;49.350;8.152;2022-10-18T05:03:00;37;;;100;;
54458;SDS011;40368;49.350;8.152;2022-10-18T05:04:00;39;;;154;;
54458;SDS011;40368;49.350;8.152;2022-10-18T05:05:00;35;;;54;;
54458;SDS011;40368;49.350;8.152;2022-10-18T05:06:00;37;;;74;;
54458;SDS011;40368;49.350;8.152;2022-10-18T05:07:00;39;;;97;;
54458;SDS011;40368;49.350;8.152;2022-10-18T05:08:00;39;;;95;;
54458;SDS011;40368;49.350;8.152;2022-10-18T05:09:00;42;;;105;;
54458;SDS011;40368;49.350;8.152;2022-10-18T05:10:00;44;;;81;;
54458;SDS011;40368;49.350;8.152;2022-10-18T05:11:00;38;;;117;;
54458;SDS011;40368;49.350;8.152;2022-10-18T05:12:01;44;;;103;;
54458;SDS011;40368;49.350;8.152;2022-10-18T05:13:00;37;;;128;;
54458;SDS011;40368;49.350;8.152;2022-10-18T05:14:00;36;;;66;;
54458;SDS011;40368;49.350;8.152;2022-10-18T05:15:00;37;;;85;;
54458;SDS011;40368;49.350;8.152;2022-10-18T05:16:00;44;;;131;;
54458;SDS011;40368;49.350;8.152;2022-10-18T05:17:01;40;;;143;;
54458;SDS011;40368;49.350;8.152;2022-10-18T05:18:00;45;;;126;;
54458;SDS011;40368;49.350;8.152;2022-10-18T05:19:02;40;;;97;;
54458;SDS011;40368;49.350;8.152;2022-10-18T05:20:00;46;;;96;;
54458;SDS011;40368;49.350;8.152;2022-10-18T05:21:00;39;;;61;;
54458;SDS011;40368;49.350;8.152;2022-10-18T05:22:00;45;;;119;;
54458;SDS011;40368;49.350;8.152;2022-10-18T05:23:00;40;;;79;;
54458;SDS011;40368;49.350;8.152;2022-10-18T05:24:00;41;;;93;;
54458;SDS011;40368;49.350;8.152;2022-10-18T05:25:00;41;;;117;;
54458;SDS011;40368;49.350;8.152;2022-10-18T05:26:01;40;;;114;;
54458;SDS011;40368;49.350;8.152;2022-10-18T05:27:00;42;;;98;;
54458;SDS011;40368;49.350;8.152;2022-10-18T05:28:00;38;;;85;;
54458;SDS011;40368;49.350;8.152;2022-10-18T05:29:00;48;;;83;;
54458;SDS011;40368;49.350;8.152;2022-10-18T05:30:00;41;;;78;;
54458;SDS011;40368;49.350;8.152;2022-10-18T05:31:00;34;;;74;;
54458;SDS011;40368;49.350;8.152;2022-10-18T05:32:01;41;;;79;;
54458;SDS011;40368;49.350;8.152;2022-10-18T05:33:00;39;;;95;;
54458;SDS011;40368;49.350;8.152;2022-10-18T05:34:00;42;;;114;;
54458;SDS011;40368;49.350;8.152;2022-10-18T05:35:00;40;;;78;;
54458;SDS011;40368;49.350;8.152;2022-10-18T05:36:00;46;;;110;;
54458;SDS011;40368;49.350;8.152;2022-10-18T05:37:00;39;;;83;;
54458;SDS011;40368;49.350;8.152;2022-10-18T05:38:02;41;;;117;;
54458;SDS011;40368;49.350;8.152;2022-10-18T05:39:01;42;;;169;;
54458;SDS011;40368;49.350;8.152;2022-10-18T05:40:00;43;;;112;;
54458;SDS011;40368;49.350;8.152;2022-10-18T05:41:02;41;;;106;;
54458;SDS011;40368;49.350;8.152;2022-10-18T05:42:00;39;;;85;;
54458;SDS011;40368;49.350;8.152;2022-10-18T05:43:00;44;;;131;;
54458;SDS011;40368;49.350;8.152;2022-10-18T05:44:01;40;;;96;;
54458;SDS011;40368;49.350;8.152;2022-10-18T05:45:00;38;;;81;;
54458;SDS011;40368;49.350;8.152;2022-10-18T05:46:00;38;;;72;;
54458;SDS011;40368;49.350;8.152;2022-10-18T05:47:00;37;;;79;;
54458;SDS011;40368;49.350;8.152;2022-10-18T05:48:00;40;;;112;;
54458;SDS011;40368;49.350;8.152;2022-10-18T05:49:00;36;;;55;;
54458;SDS011;40368;49.350;8.152;2022-10-18T05:51:00;42;;;92;;
54458;SDS011;40368;49.350;8.152;2022-10-18T05:52:00;46;;;110;;
54458;SDS011;40368;49.350;8.152;2022-10-18T05:53:00;40;;;90;;
54458;SDS011;40368;49.350;8.152;2022-10-18T05:54:00;40;;;86;;
54458;SDS011;40368;49.350;8.152;2022-10-18T05:55:00;43;;;117;;
54458;SDS011;40368;49.350;8.152;2022-10-18T05:56:00;38;;;109;;
54458;SDS011;40368;49.350;8.152;2022-10-18T05:57:00;38;;;86;;
54458;SDS011;40368;49.350;8.152;2022-10-18T05:58:00;38;;;108;;
54458;SDS011;40368;49.350;8.152;2022-10-18T05:59:00;35;;;112;;
54458;SDS011;40368;49.350;8.152;2022-10-18T06:00:00;36;;;97;;
54458;SDS011;40368;49.350;8.152;2022-10-18T06:01:00;33;;;111;;
54458;SDS011;40368;49.350;8.152;2022-10-18T06:02:00;32;;;71;;
54458;SDS011;40368;49.350;8.152;2022-10-18T06:03:00;32;;;91;;
54458;SDS011;40368;49.350;8.152;2022-10-18T06:04:00;45;;;146;;
54458;SDS011;40368;49.350;8.152;2022-10-18T06:05:00;38;;;114;;
54458;SDS011;40368;49.350;8.152;2022-10-18T06:06:00;31;;;85;;
54458;SDS011;40368;49.350;8.152;2022-10-18T06:07:00;30;;;96;;
54458;SDS011;40368;49.350;8.152;2022-10-18T06:08:00;30;;;70;;
54458;SDS011;40368;49.350;8.152;2022-10-18T06:09:00;32;;;139;;
54458;SDS011;40368;49.350;8.152;2022-10-18T06:10:00;30;;;127;;
54458;SDS011;40368;49.350;8.152;2022-10-18T06:11:04;34;;;127;;
54458;SDS011;40368;49.350;8.152;2022-10-18T06:12:00;32;;;74;;
54458;SDS011;40368;49.350;8.152;2022-10-18T06:13:00;31;;;102;;
54458;SDS011;40368;49.350;8.152;2022-10-18T06:14:00;28;;;73;;
54458;SDS011;40368;49.350;8.152;2022-10-18T06:15:00;33;;;124;;
54458;SDS011;40368;49.350;8.152;2022-10-18T06:16:00;34;;;82;;
54458;SDS011;40368;49.350;8.152;2022-10-18T06:17:00;33;;;102;;
54458;SDS011;40368;49.350;8.152;2022-10-18T06:18:00;38;;;157;;
54458;SDS011;40368;49.350;8.152;2022-10-18T06:19:00;35;;;98;;
54458;SDS011;40368;49.350;8.152;2022-10-18T06:20:00;32;;;115;;
54458;SDS011;40368;49.350;8.152;2022-10-18T06:21:00;37;;;151;;
54458;SDS011;40368;49.350;8.152;2022-10-18T06:22:00;36;;;137;;
54458;SDS011;40368;49.350;8.152;2022-10-18T06:23:00;30;;;120;;
54458;SDS011;40368;49.350;8.152;2022-10-18T06:24:00;36;;;112;;
54458;SDS011;40368;49.350;8.152;2022-10-18T06:25:00;31;;;58;;
54458;SDS011;40368;49.350;8.152;2022-10-18T06:26:01;41;;;158;;
54458;SDS011;40368;49.350;8.152;2022-10-18T06:27:00;35;;;128;;